sensor_id;sensor_type;location;lat;lon;timestamp;pressure;altitude;pressure_sealevel;temperature;humidity
29247;BME280;16272;48.188;9.964;2023-03-23T00:02:25;95366.31;;;6.78;74.27
29247;BME280;16272;48.188;9.964;2023-03-23T00:04:51;95375.47;;;6.55;74.86
29247;BME280;16272;48.188;9.964;2023-03-23T00:07:20;95367.75;;;5.82;79.38
29247;BME280;16272;48.188;9.964;2023-03-23T00:09:48;95370.41;;;6.22;77.94
29247;BME280;16272;48.188;9.964;2023-03-23T00:12:20;95370.91;;;5.97;77.75
29247;BME280;16272;48.188;9.964;2023-03-23T00:14:45;95368.91;;;5.89;77.50
29247;BME280;16272;48.188;9.964;2023-03-23T00:17:11;95369.00;;;5.78;79.25
29247;BME280;16272;48.188;9.964;2023-03-23T00:19:39;95366.63;;;5.75;79.59
29247;BME280;16272;48.188;9.964;2023-03-23T00:22:12;95357.94;;;5.84;79.56
29247;BME280;16272;48.188;9.964;2023-03-23T00:24:38;95358.53;;;6.38;77.00
29247;BME280;16272;48.188;9.964;2023-03-23T00:27:04;95361.84;;;6.30;77.32
29247;BME280;16272;48.188;9.964;2023-03-23T00:29:31;95358.50;;;6.48;76.41
29247;BME280;16272;48.188;9.964;2023-03-23T00:31:57;95360.47;;;6.65;75.58
29247;BME280;16272;48.188;9.964;2023-03-23T00:34:23;95351.19;;;6.41;76.21
29247;BME280;16272;48.188;9.964;2023-03-23T00:36:53;95352.66;;;6.24;76.47
29247;BME280;16272;48.188;9.964;2023-03-23T00:39:21;95352.84;;;6.72;74.85
29247;BME280;16272;48.188;9.964;2023-03-23T00:41:50;95349.91;;;6.46;76.82
29247;BME280;16272;48.188;9.964;2023-03-23T00:44:16;95349.66;;;6.68;75.61
29247;BME280;16272;48.188;9.964;2023-03-23T00:46:43;95343.69;;;6.47;76.67
29247;BME280;16272;48.188;9.964;2023-03-23T00:49:14;95339.66;;;6.72;75.83
29247;BME280;16272;48.188;9.964;2023-03-23T00:51:40;95340.47;;;6.23;77.86
29247;BME280;16272;48.188;9.964;2023-03-23T00:54:07;95332.56;;;6.33;77.79
29247;BME280;16272;48.188;9.964;2023-03-23T00:56:33;95336.59;;;6.47;77.18
29247;BME280;16272;48.188;9.964;2023-03-23T00:58:59;95335.47;;;6.30;77.88
29247;BME280;16272;48.188;9.964;2023-03-23T01:01:25;95337.41;;;6.28;78.47
29247;BME280;16272;48.188;9.964;2023-03-23T01:03:50;95330.50;;;6.66;76.87
29247;BME280;16272;48.188;9.964;2023-03-23T01:06:16;95328.28;;;6.61;76.31
29247;BME280;16272;48.188;9.964;2023-03-23T01:08:42;95327.78;;;6.07;79.16
29247;BME280;16272;48.188;9.964;2023-03-23T01:11:14;95318.78;;;6.00;80.05
29247;BME280;16272;48.188;9.964;2023-03-23T01:13:41;95309.22;;;5.78;80.18
29247;BME280;16272;48.188;9.964;2023-03-23T01:16:08;95314.75;;;5.75;81.15
29247;BME280;16272;48.188;9.964;2023-03-23T01:18:33;95306.28;;;6.02;80.32
29247;BME280;16272;48.188;9.964;2023-03-23T01:21:04;95293.09;;;6.02;80.01
29247;BME280;16272;48.188;9.964;2023-03-23T01:23:29;95293.44;;;5.88;80.78
29247;BME280;16272;48.188;9.964;2023-03-23T01:25:55;95287.97;;;6.11;80.62
29247;BME280;16272;48.188;9.964;2023-03-23T01:28:23;95290.53;;;5.91;81.25
29247;BME280;16272;48.188;9.964;2023-03-23T01:30:48;95286.50;;;5.87;81.53
29247;BME280;16272;48.188;9.964;2023-03-23T01:33:13;95294.47;;;5.97;80.52
29247;BME280;16272;48.188;9.964;2023-03-23T01:35:39;95289.09;;;6.18;79.96
29247;BME280;16272;48.188;9.964;2023-03-23T01:38:04;95287.31;;;6.18;80.13
29247;BME280;16272;48.188;9.964;2023-03-23T01:40:29;95279.09;;;6.51;80.23
29247;BME280;16272;48.188;9.964;2023-03-23T01:42:55;95276.59;;;6.39;80.67
29247;BME280;16272;48.188;9.964;2023-03-23T01:47:47;95285.22;;;6.32;80.40
29247;BME280;16272;48.188;9.964;2023-03-23T01:50:18;95292.56;;;6.48;79.60
29247;BME280;16272;48.188;9.964;2023-03-23T01:52:46;95286.03;;;6.81;79.27
29247;BME280;16272;48.188;9.964;2023-03-23T01:55:12;95292.81;;;6.93;77.55
29247;BME280;16272;48.188;9.964;2023-03-23T01:57:37;95283.53;;;6.79;79.20
29247;BME280;16272;48.188;9.964;2023-03-23T02:00:07;95271.59;;;6.56;80.77
29247;BME280;16272;48.188;9.964;2023-03-23T02:02:36;95279.94;;;6.71;79.83
29247;BME280;16272;48.188;9.964;2023-03-23T02:05:08;95288.53;;;6.83;78.67
29247;BME280;16272;48.188;9.964;2023-03-23T02:07:36;95277.97;;;6.92;79.61
29247;BME280;16272;48.188;9.964;2023-03-23T02:10:02;95267.59;;;6.52;80.54
29247;BME280;16272;48.188;9.964;2023-03-23T02:12:27;95271.56;;;6.85;79.16
29247;BME280;16272;48.188;9.964;2023-03-23T02:14:53;95264.56;;;7.13;77.80
29247;BME280;16272;48.188;9.964;2023-03-23T02:17:27;95270.19;;;6.91;77.88
29247;BME280;16272;48.188;9.964;2023-03-23T02:20:23;95264.31;;;7.07;78.58
29247;BME280;16272;48.188;9.964;2023-03-23T02:23:08;95269.78;;;7.33;76.99
29247;BME280;16272;48.188;9.964;2023-03-23T02:31:14;95283.72;;;7.25;79.31
29247;BME280;16272;48.188;9.964;2023-03-23T02:36:42;95288.22;;;7.05;80.32
29247;BME280;16272;48.188;9.964;2023-03-23T02:39:22;95283.41;;;7.38;78.12
29247;BME280;16272;48.188;9.964;2023-03-23T02:41:56;95282.19;;;7.23;78.34
29247;BME280;16272;48.188;9.964;2023-03-23T02:44:24;95285.66;;;7.33;78.37
29247;BME280;16272;48.188;9.964;2023-03-23T02:46:53;95289.03;;;7.06;78.62
29247;BME280;16272;48.188;9.964;2023-03-23T02:49:19;95266.59;;;6.72;81.09
29247;BME280;16272;48.188;9.964;2023-03-23T02:51:48;95271.22;;;7.17;78.89
29247;BME280;16272;48.188;9.964;2023-03-23T02:54:15;95257.41;;;6.76;81.62
29247;BME280;16272;48.188;9.964;2023-03-23T02:56:43;95244.47;;;6.93;82.90
29247;BME280;16272;48.188;9.964;2023-03-23T02:59:08;95233.50;;;6.88;82.27
29247;BME280;16272;48.188;9.964;2023-03-23T03:04:04;95239.59;;;7.63;77.74
29247;BME280;16272;48.188;9.964;2023-03-23T03:06:44;95251.91;;;7.82;76.77
29247;BME280;16272;48.188;9.964;2023-03-23T03:09:26;95254.28;;;8.57;73.34
29247;BME280;16272;48.188;9.964;2023-03-23T03:12:04;95262.00;;;8.69;72.82
29247;BME280;16272;48.188;9.964;2023-03-23T03:14:41;95275.78;;;8.98;71.47
29247;BME280;16272;48.188;9.964;2023-03-23T03:17:25;95278.34;;;9.08;70.63
29247;BME280;16272;48.188;9.964;2023-03-23T03:19:56;95270.50;;;8.98;72.24
29247;BME280;16272;48.188;9.964;2023-03-23T03:22:23;95272.13;;;9.17;70.04
29247;BME280;16272;48.188;9.964;2023-03-23T03:24:55;95274.91;;;9.16;70.01
29247;BME280;16272;48.188;9.964;2023-03-23T03:27:23;95260.75;;;9.25;70.72
29247;BME280;16272;48.188;9.964;2023-03-23T03:29:54;95279.50;;;8.61;74.91
29247;BME280;16272;48.188;9.964;2023-03-23T03:32:25;95286.16;;;8.38;76.59
29247;BME280;16272;48.188;9.964;2023-03-23T03:34:58;95277.81;;;7.97;78.65
29247;BME280;16272;48.188;9.964;2023-03-23T03:37:23;95269.28;;;8.67;76.26
29247;BME280;16272;48.188;9.964;2023-03-23T03:39:49;95270.72;;;8.43;76.58
29247;BME280;16272;48.188;9.964;2023-03-23T03:42:16;95261.84;;;8.52;77.18
29247;BME280;16272;48.188;9.964;2023-03-23T03:44:42;95260.13;;;8.61;76.55
29247;BME280;16272;48.188;9.964;2023-03-23T03:47:07;95279.56;;;8.52;76.80
29247;BME280;16272;48.188;9.964;2023-03-23T03:49:33;95268.03;;;8.25;78.24
29247;BME280;16272;48.188;9.964;2023-03-23T03:51:58;95271.44;;;8.35;78.30
29247;BME280;16272;48.188;9.964;2023-03-23T03:54:23;95247.13;;;8.50;76.81
29247;BME280;16272;48.188;9.964;2023-03-23T03:56:49;95251.72;;;8.65;76.51
29247;BME280;16272;48.188;9.964;2023-03-23T03:59:17;95259.78;;;8.82;76.15
29247;BME280;16272;48.188;9.964;2023-03-23T04:01:42;95237.94;;;8.80;75.52
29247;BME280;16272;48.188;9.964;2023-03-23T04:04:08;95243.44;;;8.87;75.78
29247;BME280;16272;48.188;9.964;2023-03-23T04:06:36;95245.63;;;8.91;75.61
29247;BME280;16272;48.188;9.964;2023-03-23T04:09:05;95247.28;;;8.92;75.45
29247;BME280;16272;48.188;9.964;2023-03-23T04:11:34;95237.00;;;8.89;75.45
29247;BME280;16272;48.188;9.964;2023-03-23T04:14:01;95236.81;;;9.09;73.74
29247;BME280;16272;48.188;9.964;2023-03-23T04:16:27;95231.28;;;9.28;73.36
29247;BME280;16272;48.188;9.964;2023-03-23T04:18:54;95230.66;;;9.08;73.39
29247;BME280;16272;48.188;9.964;2023-03-23T04:21:21;95223.41;;;9.45;71.73
29247;BME280;16272;48.188;9.964;2023-03-23T04:23:46;95218.78;;;9.47;71.39
29247;BME280;16272;48.188;9.964;2023-03-23T04:26:12;95212.84;;;9.53;71.54
29247;BME280;16272;48.188;9.964;2023-03-23T04:28:38;95215.09;;;9.31;72.84
29247;BME280;16272;48.188;9.964;2023-03-23T04:31:04;95208.50;;;9.44;71.71
29247;BME280;16272;48.188;9.964;2023-03-23T04:33:31;95204.22;;;9.51;71.87
29247;BME280;16272;48.188;9.964;2023-03-23T04:36:00;95209.25;;;9.28;72.85
29247;BME280;16272;48.188;9.964;2023-03-23T04:38:26;95200.78;;;9.59;70.99
29247;BME280;16272;48.188;9.964;2023-03-23T04:40:53;95201.63;;;9.67;71.23
29247;BME280;16272;48.188;9.964;2023-03-23T04:43:21;95187.66;;;9.57;71.57
29247;BME280;16272;48.188;9.964;2023-03-23T04:45:57;95190.78;;;9.52;72.21
29247;BME280;16272;48.188;9.964;2023-03-23T04:48:25;95184.50;;;9.53;71.99
29247;BME280;16272;48.188;9.964;2023-03-23T04:50:52;95186.41;;;9.69;71.43
29247;BME280;16272;48.188;9.964;2023-03-23T04:53:20;95182.78;;;9.87;69.65
29247;BME280;16272;48.188;9.964;2023-03-23T04:55:49;95177.16;;;9.90;70.47
29247;BME280;16272;48.188;9.964;2023-03-23T04:58:16;95180.66;;;9.90;70.43
29247;BME280;16272;48.188;9.964;2023-03-23T05:00:41;95177.28;;;9.72;70.41
29247;BME280;16272;48.188;9.964;2023-03-23T05:03:10;95179.47;;;9.85;70.68
29247;BME280;16272;48.188;9.964;2023-03-23T05:05:36;95168.81;;;9.68;71.01
29247;BME280;16272;48.188;9.964;2023-03-23T05:08:03;95174.97;;;9.77;70.93
29247;BME280;16272;48.188;9.964;2023-03-23T05:10:30;95166.69;;;9.80;71.21
29247;BME280;16272;48.188;9.964;2023-03-23T05:12:55;95174.09;;;9.60;71.90
29247;BME280;16272;48.188;9.964;2023-03-23T05:15:21;95170.25;;;9.46;72.69
29247;BME280;16272;48.188;9.964;2023-03-23T05:17:46;95174.03;;;9.44;73.05
29247;BME280;16272;48.188;9.964;2023-03-23T05:20:15;95169.44;;;9.62;72.58
29247;BME280;16272;48.188;9.964;2023-03-23T05:22:43;95171.44;;;9.60;72.69
29247;BME280;16272;48.188;9.964;2023-03-23T05:25:09;95171.16;;;9.71;72.29
29247;BME280;16272;48.188;9.964;2023-03-23T05:27:37;95179.78;;;9.82;70.89
29247;BME280;16272;48.188;9.964;2023-03-23T05:30:04;95175.34;;;9.82;71.48
29247;BME280;16272;48.188;9.964;2023-03-23T05:32:30;95167.25;;;10.00;69.40
29247;BME280;16272;48.188;9.964;2023-03-23T05:35:00;95178.19;;;10.14;68.47
29247;BME280;16272;48.188;9.964;2023-03-23T05:37:27;95181.41;;;10.42;67.13
29247;BME280;16272;48.188;9.964;2023-03-23T05:40:02;95186.00;;;10.32;67.41
29247;BME280;16272;48.188;9.964;2023-03-23T05:42:36;95189.53;;;10.40;66.53
29247;BME280;16272;48.188;9.964;2023-03-23T05:45:03;95185.19;;;10.47;66.37
29247;BME280;16272;48.188;9.964;2023-03-23T05:47:29;95184.22;;;10.57;66.27
29247;BME280;16272;48.188;9.964;2023-03-23T05:49:55;95190.00;;;10.60;66.34
29247;BME280;16272;48.188;9.964;2023-03-23T05:52:21;95186.19;;;10.71;66.14
29247;BME280;16272;48.188;9.964;2023-03-23T05:54:46;95201.47;;;10.77;65.75
29247;BME280;16272;48.188;9.964;2023-03-23T05:57:12;95206.78;;;10.69;65.57
29247;BME280;16272;48.188;9.964;2023-03-23T05:59:37;95210.75;;;10.90;65.85
29247;BME280;16272;48.188;9.964;2023-03-23T06:02:04;95206.78;;;10.77;66.06
29247;BME280;16272;48.188;9.964;2023-03-23T06:04:31;95211.25;;;10.77;65.93
29247;BME280;16272;48.188;9.964;2023-03-23T06:06:58;95210.41;;;10.84;65.76
29247;BME280;16272;48.188;9.964;2023-03-23T06:09:24;95208.06;;;10.98;65.20
29247;BME280;16272;48.188;9.964;2023-03-23T06:11:50;95207.09;;;10.99;64.83
29247;BME280;16272;48.188;9.964;2023-03-23T06:14:15;95220.31;;;11.32;64.85
29247;BME280;16272;48.188;9.964;2023-03-23T06:16:42;95215.72;;;11.01;63.64
29247;BME280;16272;48.188;9.964;2023-03-23T06:19:07;95217.56;;;11.56;62.87
29247;BME280;16272;48.188;9.964;2023-03-23T06:21:34;95215.91;;;11.95;60.94
29247;BME280;16272;48.188;9.964;2023-03-23T06:23:59;95215.34;;;12.08;59.50
29247;BME280;16272;48.188;9.964;2023-03-23T06:26:30;95211.09;;;11.90;60.70
29247;BME280;16272;48.188;9.964;2023-03-23T06:28:57;95201.94;;;11.53;61.76
29247;BME280;16272;48.188;9.964;2023-03-23T06:31:23;95205.56;;;11.61;64.26
29247;BME280;16272;48.188;9.964;2023-03-23T06:33:49;95207.28;;;11.93;62.80
29247;BME280;16272;48.188;9.964;2023-03-23T06:36:14;95205.94;;;11.49;61.94
29247;BME280;16272;48.188;9.964;2023-03-23T06:38:39;95208.38;;;12.07;61.67
29247;BME280;16272;48.188;9.964;2023-03-23T06:41:05;95213.44;;;11.85;61.21
29247;BME280;16272;48.188;9.964;2023-03-23T06:43:31;95203.94;;;11.91;61.01
29247;BME280;16272;48.188;9.964;2023-03-23T06:45:59;95208.22;;;12.55;60.57
29247;BME280;16272;48.188;9.964;2023-03-23T06:48:25;95217.03;;;12.55;59.47
29247;BME280;16272;48.188;9.964;2023-03-23T06:50:53;95212.94;;;12.91;55.01
29247;BME280;16272;48.188;9.964;2023-03-23T06:53:20;95208.63;;;12.66;56.88
29247;BME280;16272;48.188;9.964;2023-03-23T06:55:46;95213.56;;;12.93;58.76
29247;BME280;16272;48.188;9.964;2023-03-23T06:58:12;95206.94;;;12.88;55.55
29247;BME280;16272;48.188;9.964;2023-03-23T07:00:39;95202.56;;;13.11;55.12
29247;BME280;16272;48.188;9.964;2023-03-23T07:03:06;95210.44;;;13.57;55.24
29247;BME280;16272;48.188;9.964;2023-03-23T07:05:36;95213.81;;;13.66;54.34
29247;BME280;16272;48.188;9.964;2023-03-23T07:08:04;95210.78;;;13.84;53.79
29247;BME280;16272;48.188;9.964;2023-03-23T07:10:30;95216.50;;;13.66;54.40
29247;BME280;16272;48.188;9.964;2023-03-23T07:12:57;95209.63;;;13.56;51.78
29247;BME280;16272;48.188;9.964;2023-03-23T07:15:22;95230.28;;;13.99;52.51
29247;BME280;16272;48.188;9.964;2023-03-23T07:17:51;95222.78;;;14.09;52.35
29247;BME280;16272;48.188;9.964;2023-03-23T07:20:20;95222.59;;;14.11;54.08
29247;BME280;16272;48.188;9.964;2023-03-23T07:22:47;95225.09;;;14.12;53.04
29247;BME280;16272;48.188;9.964;2023-03-23T07:25:12;95229.28;;;13.85;51.27
29247;BME280;16272;48.188;9.964;2023-03-23T07:27:38;95228.16;;;13.94;50.05
29247;BME280;16272;48.188;9.964;2023-03-23T07:30:06;95231.47;;;14.33;51.31
29247;BME280;16272;48.188;9.964;2023-03-23T07:32:35;95240.28;;;14.48;51.39
29247;BME280;16272;48.188;9.964;2023-03-23T07:35:02;95240.53;;;14.53;47.57
29247;BME280;16272;48.188;9.964;2023-03-23T07:37:27;95238.72;;;14.03;52.34
29247;BME280;16272;48.188;9.964;2023-03-23T07:39:53;95245.41;;;14.65;49.57
29247;BME280;16272;48.188;9.964;2023-03-23T07:42:20;95247.13;;;14.36;49.62
29247;BME280;16272;48.188;9.964;2023-03-23T07:44:46;95244.34;;;14.44;50.06
29247;BME280;16272;48.188;9.964;2023-03-23T07:47:12;95251.88;;;14.19;48.52
29247;BME280;16272;48.188;9.964;2023-03-23T07:49:39;95252.63;;;14.49;49.86
29247;BME280;16272;48.188;9.964;2023-03-23T07:52:04;95254.34;;;14.57;49.33
29247;BME280;16272;48.188;9.964;2023-03-23T07:54:30;95256.00;;;14.58;49.76
29247;BME280;16272;48.188;9.964;2023-03-23T07:56:56;95262.59;;;14.41;50.27
29247;BME280;16272;48.188;9.964;2023-03-23T07:59:21;95263.06;;;14.29;48.39
29247;BME280;16272;48.188;9.964;2023-03-23T08:01:47;95264.50;;;14.62;47.94
29247;BME280;16272;48.188;9.964;2023-03-23T08:04:12;95267.75;;;14.42;48.85
29247;BME280;16272;48.188;9.964;2023-03-23T08:06:38;95275.28;;;14.53;49.62
29247;BME280;16272;48.188;9.964;2023-03-23T08:09:05;95272.78;;;14.15;50.81
29247;BME280;16272;48.188;9.964;2023-03-23T08:11:34;95274.34;;;14.10;50.97
29247;BME280;16272;48.188;9.964;2023-03-23T08:14:00;95282.88;;;14.35;49.74
29247;BME280;16272;48.188;9.964;2023-03-23T08:16:26;95282.06;;;14.71;48.89
29247;BME280;16272;48.188;9.964;2023-03-23T08:18:51;95284.06;;;14.32;49.73
29247;BME280;16272;48.188;9.964;2023-03-23T08:21:17;95298.34;;;14.25;50.15
29247;BME280;16272;48.188;9.964;2023-03-23T08:23:42;95299.38;;;14.24;51.16
29247;BME280;16272;48.188;9.964;2023-03-23T08:26:09;95297.47;;;14.18;50.61
29247;BME280;16272;48.188;9.964;2023-03-23T08:28:36;95298.22;;;14.63;50.12
29247;BME280;16272;48.188;9.964;2023-03-23T08:31:10;95295.31;;;14.79;48.50
29247;BME280;16272;48.188;9.964;2023-03-23T08:33:37;95290.72;;;14.73;48.81
29247;BME280;16272;48.188;9.964;2023-03-23T08:36:03;95281.56;;;15.60;48.30
29247;BME280;16272;48.188;9.964;2023-03-23T08:38:30;95275.09;;;15.41;46.81
29247;BME280;16272;48.188;9.964;2023-03-23T08:41:04;95280.91;;;15.80;48.86
29247;BME280;16272;48.188;9.964;2023-03-23T08:43:34;95283.09;;;15.41;49.67
29247;BME280;16272;48.188;9.964;2023-03-23T08:46:00;95281.78;;;15.87;48.37
29247;BME280;16272;48.188;9.964;2023-03-23T08:48:31;95285.56;;;16.48;47.23
29247;BME280;16272;48.188;9.964;2023-03-23T08:50:58;95271.44;;;16.19;46.85
29247;BME280;16272;48.188;9.964;2023-03-23T08:53:24;95279.56;;;16.46;46.97
29247;BME280;16272;48.188;9.964;2023-03-23T08:55:52;95281.50;;;16.65;47.75
29247;BME280;16272;48.188;9.964;2023-03-23T08:58:22;95280.78;;;15.95;49.91
29247;BME280;16272;48.188;9.964;2023-03-23T09:00:48;95279.53;;;15.62;49.92
29247;BME280;16272;48.188;9.964;2023-03-23T09:03:13;95276.28;;;15.95;48.31
29247;BME280;16272;48.188;9.964;2023-03-23T09:05:38;95278.50;;;15.63;49.24
29247;BME280;16272;48.188;9.964;2023-03-23T09:08:08;95277.09;;;15.96;49.09
29247;BME280;16272;48.188;9.964;2023-03-23T09:10:33;95285.03;;;15.76;48.73
29247;BME280;16272;48.188;9.964;2023-03-23T09:13:00;95282.97;;;15.78;50.25
29247;BME280;16272;48.188;9.964;2023-03-23T09:15:25;95294.56;;;15.63;49.28
29247;BME280;16272;48.188;9.964;2023-03-23T09:17:53;95291.63;;;15.80;48.92
29247;BME280;16272;48.188;9.964;2023-03-23T09:20:24;95292.13;;;15.69;49.75
29247;BME280;16272;48.188;9.964;2023-03-23T09:22:53;95295.84;;;15.68;50.20
29247;BME280;16272;48.188;9.964;2023-03-23T09:25:23;95295.59;;;15.62;49.79
29247;BME280;16272;48.188;9.964;2023-03-23T09:27:56;95300.09;;;15.84;48.16
29247;BME280;16272;48.188;9.964;2023-03-23T09:30:29;95303.03;;;16.30;49.89
29247;BME280;16272;48.188;9.964;2023-03-23T09:32:56;95309.66;;;15.99;48.57
29247;BME280;16272;48.188;9.964;2023-03-23T09:35:24;95302.28;;;16.08;49.48
29247;BME280;16272;48.188;9.964;2023-03-23T09:37:53;95311.00;;;16.17;49.79
29247;BME280;16272;48.188;9.964;2023-03-23T09:40:23;95301.97;;;15.90;48.65
29247;BME280;16272;48.188;9.964;2023-03-23T09:51:11;95304.38;;;15.78;47.94
29247;BME280;16272;48.188;9.964;2023-03-23T09:53:45;95305.31;;;15.98;47.39
29247;BME280;16272;48.188;9.964;2023-03-23T09:56:15;95315.56;;;15.88;48.73
29247;BME280;16272;48.188;9.964;2023-03-23T09:58:45;95314.00;;;16.42;48.20
29247;BME280;16272;48.188;9.964;2023-03-23T10:01:20;95311.94;;;16.03;48.21
29247;BME280;16272;48.188;9.964;2023-03-23T10:03:48;95316.13;;;16.12;49.56
29247;BME280;16272;48.188;9.964;2023-03-23T10:06:17;95319.03;;;16.17;49.30
29247;BME280;16272;48.188;9.964;2023-03-23T10:08:48;95327.97;;;16.31;48.54
29247;BME280;16272;48.188;9.964;2023-03-23T10:11:27;95325.88;;;16.26;49.25
29247;BME280;16272;48.188;9.964;2023-03-23T10:17:33;95319.06;;;16.24;47.23
29247;BME280;16272;48.188;9.964;2023-03-23T10:20:30;95327.47;;;16.62;47.23
29247;BME280;16272;48.188;9.964;2023-03-23T10:25:51;95321.09;;;16.63;46.78
29247;BME280;16272;48.188;9.964;2023-03-23T10:28:32;95324.50;;;16.44;47.19
29247;BME280;16272;48.188;9.964;2023-03-23T10:31:01;95328.53;;;16.68;47.22
29247;BME280;16272;48.188;9.964;2023-03-23T10:33:41;95330.03;;;16.35;47.40
29247;BME280;16272;48.188;9.964;2023-03-23T10:36:19;95336.34;;;16.21;48.61
29247;BME280;16272;48.188;9.964;2023-03-23T10:39:14;95326.25;;;16.65;47.19
29247;BME280;16272;48.188;9.964;2023-03-23T10:41:43;95329.81;;;16.30;50.04
29247;BME280;16272;48.188;9.964;2023-03-23T10:44:20;95328.63;;;16.88;47.03
29247;BME280;16272;48.188;9.964;2023-03-23T10:47:06;95322.44;;;16.46;48.26
29247;BME280;16272;48.188;9.964;2023-03-23T10:52:26;95326.56;;;16.42;49.37
29247;BME280;16272;48.188;9.964;2023-03-23T10:55:01;95324.19;;;16.73;48.98
29247;BME280;16272;48.188;9.964;2023-03-23T10:57:32;95325.13;;;16.94;48.35
29247;BME280;16272;48.188;9.964;2023-03-23T11:02:38;95330.38;;;16.67;48.38
29247;BME280;16272;48.188;9.964;2023-03-23T11:05:13;95338.94;;;16.91;49.58
29247;BME280;16272;48.188;9.964;2023-03-23T11:07:40;95332.75;;;16.90;48.90
29247;BME280;16272;48.188;9.964;2023-03-23T11:10:16;95328.72;;;16.66;48.53
29247;BME280;16272;48.188;9.964;2023-03-23T11:12:45;95334.94;;;16.73;48.79
29247;BME280;16272;48.188;9.964;2023-03-23T11:15:33;95333.38;;;16.99;49.58
29247;BME280;16272;48.188;9.964;2023-03-23T11:18:03;95327.31;;;16.84;49.07
29247;BME280;16272;48.188;9.964;2023-03-23T11:20:36;95338.31;;;16.89;48.17
29247;BME280;16272;48.188;9.964;2023-03-23T11:23:18;95333.47;;;16.64;48.43
29247;BME280;16272;48.188;9.964;2023-03-23T11:26:03;95338.66;;;16.72;49.52
29247;BME280;16272;48.188;9.964;2023-03-23T11:28:37;95339.97;;;16.42;49.26
29247;BME280;16272;48.188;9.964;2023-03-23T11:31:06;95331.59;;;16.58;47.47
29247;BME280;16272;48.188;9.964;2023-03-23T11:33:54;95324.16;;;16.60;48.92
29247;BME280;16272;48.188;9.964;2023-03-23T11:36:29;95321.84;;;17.05;47.12
29247;BME280;16272;48.188;9.964;2023-03-23T11:38:55;95333.84;;;17.36;47.68
29247;BME280;16272;48.188;9.964;2023-03-23T11:41:31;95316.91;;;17.42;46.41
29247;BME280;16272;48.188;9.964;2023-03-23T11:43:56;95333.81;;;17.09;48.42
29247;BME280;16272;48.188;9.964;2023-03-23T11:46:34;95326.63;;;17.17;46.47
29247;BME280;16272;48.188;9.964;2023-03-23T11:49:10;95330.72;;;17.13;47.93
29247;BME280;16272;48.188;9.964;2023-03-23T11:51:56;95331.34;;;17.28;47.74
29247;BME280;16272;48.188;9.964;2023-03-23T11:54:31;95330.53;;;17.54;45.56
29247;BME280;16272;48.188;9.964;2023-03-23T11:56:58;95342.88;;;16.47;48.66
29247;BME280;16272;48.188;9.964;2023-03-23T11:59:33;95336.72;;;16.53;48.27
29247;BME280;16272;48.188;9.964;2023-03-23T12:05:05;95337.69;;;16.39;49.08
29247;BME280;16272;48.188;9.964;2023-03-23T12:08:02;95335.38;;;16.84;47.20
29247;BME280;16272;48.188;9.964;2023-03-23T12:11:07;95326.38;;;17.18;47.71
29247;BME280;16272;48.188;9.964;2023-03-23T12:14:01;95305.75;;;17.59;47.63
29247;BME280;16272;48.188;9.964;2023-03-23T12:23:13;95323.06;;;16.89;47.36
29247;BME280;16272;48.188;9.964;2023-03-23T12:33:48;95306.41;;;16.52;47.38
29247;BME280;16272;48.188;9.964;2023-03-23T12:44:28;95303.34;;;16.62;46.45
29247;BME280;16272;48.188;9.964;2023-03-23T12:49:57;95300.47;;;16.70;46.76
29247;BME280;16272;48.188;9.964;2023-03-23T12:52:51;95289.53;;;16.65;47.28
29247;BME280;16272;48.188;9.964;2023-03-23T12:58:23;95278.53;;;17.29;47.42
29247;BME280;16272;48.188;9.964;2023-03-23T13:01:10;95276.22;;;17.86;46.37
29247;BME280;16272;48.188;9.964;2023-03-23T13:03:59;95264.06;;;17.36;45.68
29247;BME280;16272;48.188;9.964;2023-03-23T13:06:31;95261.53;;;17.88;44.66
29247;BME280;16272;48.188;9.964;2023-03-23T13:09:01;95252.06;;;17.52;46.07
29247;BME280;16272;48.188;9.964;2023-03-23T13:11:33;95249.81;;;17.02;46.39
29247;BME280;16272;48.188;9.964;2023-03-23T13:14:08;95248.34;;;16.86;45.31
29247;BME280;16272;48.188;9.964;2023-03-23T13:22:06;95261.16;;;17.04;46.65
29247;BME280;16272;48.188;9.964;2023-03-23T13:24:36;95250.44;;;17.58;45.57
29247;BME280;16272;48.188;9.964;2023-03-23T13:27:04;95260.34;;;18.36;44.69
29247;BME280;16272;48.188;9.964;2023-03-23T13:29:32;95253.72;;;17.20;44.63
29247;BME280;16272;48.188;9.964;2023-03-23T13:32:10;95254.53;;;17.67;45.57
29247;BME280;16272;48.188;9.964;2023-03-23T13:34:37;95257.88;;;17.02;47.25
29247;BME280;16272;48.188;9.964;2023-03-23T13:37:10;95254.47;;;16.73;46.46
29247;BME280;16272;48.188;9.964;2023-03-23T13:39:47;95252.59;;;16.61;47.42
29247;BME280;16272;48.188;9.964;2023-03-23T13:47:27;95254.34;;;16.95;46.52
29247;BME280;16272;48.188;9.964;2023-03-23T13:50:03;95252.09;;;16.99;46.57
29247;BME280;16272;48.188;9.964;2023-03-23T13:58:09;95253.13;;;16.91;47.51
29247;BME280;16272;48.188;9.964;2023-03-23T14:00:45;95241.25;;;16.59;47.94
29247;BME280;16272;48.188;9.964;2023-03-23T14:03:17;95240.84;;;16.55;47.41
29247;BME280;16272;48.188;9.964;2023-03-23T14:05:44;95240.50;;;16.92;46.12
29247;BME280;16272;48.188;9.964;2023-03-23T14:10:53;95246.56;;;16.39;47.54
29247;BME280;16272;48.188;9.964;2023-03-23T14:13:47;95256.00;;;16.28;49.90
29247;BME280;16272;48.188;9.964;2023-03-23T14:19:00;95240.59;;;15.88;48.41
29247;BME280;16272;48.188;9.964;2023-03-23T14:21:42;95249.44;;;16.37;48.95
29247;BME280;16272;48.188;9.964;2023-03-23T14:24:21;95246.47;;;16.12;50.67
29247;BME280;16272;48.188;9.964;2023-03-23T14:26:53;95247.59;;;15.89;48.99
29247;BME280;16272;48.188;9.964;2023-03-23T14:29:27;95253.25;;;15.73;50.91
29247;BME280;16272;48.188;9.964;2023-03-23T14:31:57;95253.13;;;15.81;49.83
29247;BME280;16272;48.188;9.964;2023-03-23T14:34:28;95261.28;;;16.08;51.19
29247;BME280;16272;48.188;9.964;2023-03-23T14:36:56;95248.59;;;15.53;51.42
29247;BME280;16272;48.188;9.964;2023-03-23T14:39:30;95258.59;;;15.73;53.26
29247;BME280;16272;48.188;9.964;2023-03-23T14:42:02;95257.03;;;15.50;51.81
29247;BME280;16272;48.188;9.964;2023-03-23T14:44:33;95246.63;;;15.69;50.62
29247;BME280;16272;48.188;9.964;2023-03-23T14:47:20;95251.72;;;15.92;51.56